Arvada, Colorado
Current Conditions -  °F | °C
As of 1:35 AM on Friday 31 Oct 2014 (Local Time) from KBJC Reporting Station
Clear Clear  
Wind Chill: 39°   Ceiling: Unl
Heat Index: 39°   Visibility: 10mi
Dew Point: 30°   Wind: 0mph
Humidity: 70%   Direction: NA
Pressure: 30.39"   Gusts: NA
Location:  39.8°N, 105.08°W
Report Text: KBJC 310735Z AUTO 00000KT 10SM CLR 04/M01 A3039 RMK AO2
Loading
Personal Weather Stations






























Interactive Weather Map
Tropical Storm Tracking
New forecast layout! Learn more

10-Day Weather Forecast

Advertisements
Track Severe Weather on mobile